createdAt,value
2022-09-27T22:45:44.855Z,623.23
2022-09-27T22:46:44.851Z,623.15
2022-09-27T22:47:44.798Z,623.13
2022-09-27T22:48:44.780Z,623.11
2022-09-27T22:49:44.775Z,623.09
2022-09-27T22:50:44.759Z,623.08
2022-09-27T22:51:44.785Z,623.07
2022-09-27T22:52:44.756Z,623.07
2022-09-27T22:53:44.752Z,623.05
2022-09-27T22:54:44.715Z,623.05
2022-09-27T22:55:44.710Z,623.04
2022-09-27T22:56:44.722Z,623.04
2022-09-27T22:57:44.700Z,623.01
2022-09-27T22:58:44.674Z,623.01
2022-09-27T22:59:44.669Z,623.01
2022-09-27T23:00:44.706Z,623.01
2022-09-27T23:01:44.693Z,623.01
2022-09-27T23:02:44.632Z,623.02
2022-09-27T23:03:44.690Z,623.00
2022-09-27T23:04:44.606Z,622.99
2022-09-27T23:05:44.600Z,623.01
2022-09-27T23:06:44.604Z,622.99
2022-09-27T23:07:44.579Z,622.99
2022-09-27T23:08:44.565Z,622.99
2022-09-27T23:09:44.557Z,622.99
2022-09-27T23:10:44.540Z,622.98
2022-09-27T23:11:44.557Z,622.99
2022-09-27T23:12:44.545Z,622.98
2022-09-27T23:13:44.521Z,622.98
2022-09-27T23:14:44.503Z,622.98
2022-09-27T23:15:44.572Z,622.98
2022-09-27T23:16:44.481Z,622.98
2022-09-27T23:17:44.495Z,622.98
2022-09-27T23:18:44.459Z,622.98
2022-09-27T23:19:44.442Z,622.98
2022-09-27T23:20:44.445Z,622.97
2022-09-27T23:21:44.423Z,622.97
2022-09-27T23:22:44.429Z,622.97
2022-09-27T23:23:44.403Z,622.98
2022-09-27T23:24:44.392Z,622.97
2022-09-27T23:25:44.370Z,622.97
2022-09-27T23:26:44.400Z,622.96
2022-09-27T23:27:44.350Z,622.97
2022-09-27T23:28:44.354Z,622.96
2022-09-27T23:29:44.326Z,622.97
2022-09-27T23:30:44.329Z,622.97
2022-09-27T23:31:44.420Z,622.96
2022-09-27T23:32:44.316Z,622.96
2022-09-27T23:33:44.370Z,622.96
2022-09-27T23:34:44.282Z,622.95
2022-09-27T23:35:44.289Z,622.95
2022-09-27T23:36:44.250Z,622.95
2022-09-27T23:37:44.247Z,622.94
2022-09-27T23:38:44.244Z,622.95
2022-09-27T23:39:44.212Z,622.95
2022-09-27T23:40:44.302Z,622.97
2022-09-27T23:41:44.203Z,622.95
2022-09-27T23:42:44.197Z,622.95
2022-09-27T23:43:44.169Z,622.94
2022-09-27T23:44:44.168Z,622.95
2022-09-27T23:45:44.158Z,622.95
2022-09-27T23:46:44.223Z,622.94
2022-09-27T23:47:44.122Z,622.95
2022-09-27T23:48:44.126Z,622.96
2022-09-27T23:49:44.122Z,622.94
2022-09-27T23:50:44.095Z,622.95
2022-09-27T23:51:44.092Z,622.95
2022-09-27T23:52:44.079Z,622.95
2022-09-27T23:53:44.084Z,622.95
2022-09-27T23:54:44.050Z,1303.61
2022-09-27T23:55:44.045Z,1303.61
2022-09-27T23:56:44.040Z,1303.61
2022-09-27T23:57:44.027Z,1303.61
2022-09-27T23:58:44.014Z,1303.61
2022-09-27T23:59:43.987Z,1303.61
